createdAt,value
2018-03-15T00:00:12.487Z,1005.34
2018-03-15T00:01:13.875Z,1005.31
2018-03-15T00:02:15.296Z,1005.32
2018-03-15T00:03:16.687Z,1005.31
2018-03-15T00:04:18.117Z,1005.29
2018-03-15T00:05:19.509Z,1005.27
2018-03-15T00:06:20.907Z,1005.28
2018-03-15T00:07:22.302Z,1005.24
2018-03-15T00:08:23.709Z,1005.21
2018-03-15T00:09:25.142Z,1005.24
2018-03-15T00:10:26.518Z,1005.22
2018-03-15T00:11:27.909Z,1005.21
2018-03-15T00:12:29.298Z,1005.13
2018-03-15T00:13:30.684Z,1005.19
2018-03-15T00:14:32.044Z,1005.17
2018-03-15T00:15:33.451Z,1005.16
2018-03-15T00:16:34.853Z,1005.18
2018-03-15T00:17:36.227Z,1005.19
2018-03-15T00:18:37.611Z,1005.22
2018-03-15T00:19:38.992Z,1005.17
2018-03-15T00:20:40.368Z,1005.17
2018-03-15T00:21:41.784Z,1005.16
2018-03-15T00:22:43.179Z,1005.19
2018-03-15T00:23:44.567Z,1005.22
2018-03-15T00:24:45.969Z,1005.17
2018-03-15T00:25:47.344Z,1005.22
2018-03-15T00:26:48.748Z,1005.18
2018-03-15T00:27:50.147Z,1005.21
2018-03-15T00:28:51.544Z,1005.19
2018-03-15T00:29:52.965Z,1005.19
2018-03-15T00:30:54.352Z,1005.21
2018-03-15T00:31:56.485Z,1005.21
2018-03-15T00:32:57.899Z,1005.18
2018-03-15T00:33:59.291Z,1005.22
2018-03-15T00:35:00.685Z,1005.26
2018-03-15T00:36:02.050Z,1005.29
2018-03-15T00:37:03.438Z,1005.30
2018-03-15T00:38:04.810Z,1005.28
2018-03-15T00:39:06.200Z,1005.24
2018-03-15T00:40:07.608Z,1005.24
2018-03-15T00:41:08.986Z,1005.28
2018-03-15T00:42:10.368Z,1005.22
2018-03-15T00:43:11.741Z,1005.26
2018-03-15T00:44:13.132Z,1005.28
2018-03-15T00:45:14.502Z,1005.25
2018-03-15T00:46:15.874Z,1005.25
2018-03-15T00:47:17.248Z,1005.22
2018-03-15T00:48:18.626Z,1005.20
2018-03-15T00:49:20.010Z,1005.22
2018-03-15T00:50:21.378Z,1005.20
2018-03-15T00:51:22.756Z,1005.13
2018-03-15T00:52:24.132Z,1005.19
2018-03-15T00:53:25.516Z,1005.14
2018-03-15T00:54:26.883Z,1005.13
2018-03-15T00:55:28.259Z,1005.16
2018-03-15T00:56:29.637Z,1005.13
2018-03-15T00:57:31.027Z,1005.13
2018-03-15T00:58:32.403Z,1005.20
2018-03-15T00:59:33.785Z,1005.15
2018-03-15T01:00:35.150Z,1005.17
2018-03-15T01:01:36.528Z,1005.19
2018-03-15T01:02:37.892Z,1005.17
2018-03-15T01:03:39.269Z,1005.21
2018-03-15T01:04:40.654Z,1005.21
2018-03-15T01:05:42.032Z,1005.19
2018-03-15T01:06:43.414Z,1005.17
2018-03-15T01:07:44.792Z,1005.15
2018-03-15T01:08:46.164Z,1005.20
2018-03-15T01:09:47.530Z,1005.19
2018-03-15T01:10:48.921Z,1005.14
2018-03-15T01:11:50.294Z,1005.13
2018-03-15T01:12:51.680Z,1005.20
2018-03-15T01:13:53.070Z,1005.18
2018-03-15T01:14:54.425Z,1005.14
2018-03-15T01:15:55.818Z,1005.14
2018-03-15T01:16:57.192Z,1005.15
2018-03-15T01:17:58.552Z,1005.14
2018-03-15T01:18:59.934Z,1005.16
2018-03-15T01:20:01.312Z,1005.15
2018-03-15T01:21:02.687Z,1005.14
2018-03-15T01:22:04.069Z,1005.11
2018-03-15T01:23:05.441Z,1005.06
2018-03-15T01:24:06.813Z,1005.11
2018-03-15T01:25:08.197Z,1005.09
2018-03-15T01:26:09.567Z,1005.10
2018-03-15T01:27:10.955Z,1005.11
2018-03-15T01:28:12.325Z,1005.05
2018-03-15T01:29:13.703Z,1005.03
2018-03-15T01:30:15.083Z,1005.11
2018-03-15T01:31:16.463Z,1005.04
2018-03-15T01:32:17.838Z,1005.08
2018-03-15T01:33:19.230Z,1005.10
2018-03-15T01:34:20.609Z,1005.09
2018-03-15T01:35:21.990Z,1005.08
2018-03-15T01:36:23.352Z,1005.10
2018-03-15T01:37:24.732Z,1005.07
2018-03-15T01:38:26.132Z,1005.10
2018-03-15T01:39:27.492Z,1005.11
2018-03-15T01:40:28.898Z,1005.10
2018-03-15T01:41:30.232Z,1005.05
2018-03-15T01:42:31.620Z,1005.10
2018-03-15T01:43:32.998Z,1005.12
2018-03-15T01:44:34.356Z,1005.12
2018-03-15T01:45:35.762Z,1005.08
2018-03-15T01:46:37.127Z,1005.07
2018-03-15T01:47:38.514Z,1005.08
2018-03-15T01:48:39.885Z,1005.12
2018-03-15T01:49:41.258Z,1005.07
2018-03-15T01:50:43.327Z,1005.03
2018-03-15T01:51:44.702Z,1005.05
2018-03-15T01:52:46.086Z,1005.03
2018-03-15T01:53:47.459Z,1005.03
2018-03-15T01:54:48.845Z,1005.02
2018-03-15T01:55:50.242Z,1005.04
2018-03-15T01:56:51.606Z,1005.00
2018-03-15T01:57:52.981Z,1005.02
2018-03-15T01:58:54.353Z,1005.06
2018-03-15T01:59:55.737Z,1005.04
2018-03-15T02:00:57.112Z,1005.00
2018-03-15T02:01:58.481Z,1005.08
2018-03-15T02:02:59.867Z,1005.03
2018-03-15T02:04:01.238Z,1005.02
2018-03-15T02:05:02.615Z,1004.99
2018-03-15T02:06:03.982Z,1004.98
2018-03-15T02:07:06.050Z,1004.97
2018-03-15T02:08:07.428Z,1004.94
2018-03-15T02:09:08.806Z,1004.92
2018-03-15T02:10:10.194Z,1004.93
2018-03-15T02:11:11.571Z,1004.95
2018-03-15T02:12:12.940Z,1004.90
2018-03-15T02:13:14.306Z,1004.89
2018-03-15T02:14:15.686Z,1004.87
2018-03-15T02:15:17.077Z,1004.88
2018-03-15T02:16:18.452Z,1004.89
2018-03-15T02:17:19.826Z,1004.83
2018-03-15T02:18:21.203Z,1004.86
2018-03-15T02:19:22.573Z,1004.79
2018-03-15T02:20:23.951Z,1004.80
2018-03-15T02:21:25.326Z,1004.86
2018-03-15T02:22:26.705Z,1004.85
2018-03-15T02:23:28.083Z,1004.84
2018-03-15T02:24:29.462Z,1004.90
2018-03-15T02:25:30.831Z,1004.90
2018-03-15T02:26:32.218Z,1004.87
2018-03-15T02:27:33.589Z,1004.83
2018-03-15T02:28:34.964Z,1004.88
2018-03-15T02:29:36.334Z,1004.86
2018-03-15T02:30:37.698Z,1004.82
2018-03-15T02:31:39.861Z,1004.87
2018-03-15T02:32:41.233Z,1004.83
2018-03-15T02:33:42.606Z,1004.88
2018-03-15T02:34:43.972Z,1004.81
2018-03-15T02:35:45.349Z,1004.79
2018-03-15T02:36:46.730Z,1004.82
2018-03-15T02:37:48.105Z,1004.79
2018-03-15T02:38:49.477Z,1004.78
2018-03-15T02:39:50.844Z,1004.82
2018-03-15T02:40:52.222Z,1004.78
2018-03-15T02:41:53.589Z,1004.78
2018-03-15T02:42:54.967Z,1004.77
2018-03-15T02:43:56.347Z,1004.78
2018-03-15T02:44:57.716Z,1004.77
2018-03-15T02:45:59.081Z,1004.80
2018-03-15T02:47:00.454Z,1004.79
2018-03-15T02:48:01.835Z,1004.79
2018-03-15T02:49:03.211Z,1004.80
2018-03-15T02:50:04.591Z,1004.75
2018-03-15T02:51:05.973Z,1004.79
2018-03-15T02:52:07.348Z,1004.77
2018-03-15T02:53:08.738Z,1004.78
2018-03-15T02:54:10.107Z,1004.75
2018-03-15T02:55:11.490Z,1004.76
2018-03-15T02:56:12.862Z,1004.78
2018-03-15T02:57:14.238Z,1004.72
2018-03-15T02:58:15.608Z,1004.73
2018-03-15T02:59:16.984Z,1004.74
2018-03-15T03:00:18.363Z,1004.72
2018-03-15T03:01:19.718Z,1004.70
2018-03-15T03:02:21.101Z,1004.71
2018-03-15T03:03:22.476Z,1004.73
2018-03-15T03:04:23.845Z,1004.70
2018-03-15T03:05:26.055Z,1004.72
2018-03-15T03:06:27.434Z,1004.76
2018-03-15T03:07:28.794Z,1004.77
2018-03-15T03:08:30.168Z,1004.79
2018-03-15T03:09:31.548Z,1004.82
2018-03-15T03:10:32.905Z,1004.85
2018-03-15T03:11:34.285Z,1004.82
2018-03-15T03:12:35.648Z,1004.79
2018-03-15T03:13:37.019Z,1004.78
2018-03-15T18:17:19.587Z,1002.14
2018-03-15T18:18:20.971Z,1002.11
2018-03-15T18:19:23.274Z,1002.18
2018-03-15T18:20:24.666Z,1002.20
2018-03-15T18:21:26.053Z,1002.14
2018-03-15T18:22:27.426Z,1002.10
2018-03-15T18:23:28.832Z,1002.18
2018-03-15T18:24:30.225Z,1002.17
2018-03-15T18:25:31.619Z,1002.18
2018-03-15T18:26:33.015Z,1002.18
2018-03-15T18:27:34.399Z,1002.17
2018-03-15T18:28:35.786Z,1002.18
2018-03-15T18:29:37.172Z,1002.12
2018-03-15T18:30:38.560Z,1002.14
2018-03-15T18:31:39.880Z,1002.14
2018-03-15T18:32:41.224Z,1002.15
2018-03-15T18:33:42.601Z,1002.16
2018-03-15T18:34:43.983Z,1002.24
2018-03-15T18:35:45.410Z,1002.25
2018-03-15T18:36:46.779Z,1002.19
2018-03-15T18:37:48.168Z,1002.13
2018-03-15T18:38:49.580Z,1002.18
2018-03-15T18:39:50.942Z,1002.26
2018-03-15T18:40:52.335Z,1002.12
2018-03-15T18:41:53.690Z,1002.18
2018-03-15T18:42:55.133Z,1002.18
2018-03-15T18:43:56.522Z,1002.24
2018-03-15T18:44:58.034Z,1002.19
2018-03-15T18:45:59.428Z,1002.21
2018-03-15T18:47:00.898Z,1002.15
2018-03-15T18:48:02.231Z,1002.20
2018-03-15T18:49:04.416Z,1002.24
2018-03-15T18:50:05.791Z,1002.22
2018-03-15T18:51:07.171Z,1002.25
2018-03-15T18:52:08.542Z,1002.19
2018-03-15T18:53:09.938Z,1002.25
2018-03-15T18:54:11.310Z,1002.29
2018-03-15T18:55:12.703Z,1002.23
2018-03-15T18:56:14.094Z,1002.18
2018-03-15T18:57:15.486Z,1002.25
2018-03-15T18:58:16.865Z,1002.28
2018-03-15T18:59:18.252Z,1002.20
2018-03-15T19:00:20.543Z,1002.24
2018-03-15T19:01:21.966Z,1002.42
2018-03-15T19:02:23.336Z,1002.22
2018-03-15T19:03:24.744Z,1002.38
2018-03-15T19:04:26.173Z,1002.32
2018-03-15T19:05:27.562Z,1002.31
2018-03-15T19:06:28.981Z,1002.38
2018-03-15T19:07:30.352Z,1002.33
2018-03-15T19:08:31.891Z,1002.45
2018-03-15T19:09:33.257Z,1002.29
2018-03-15T19:10:34.637Z,1002.27
2018-03-15T19:11:36.036Z,1002.30
2018-03-15T19:12:37.423Z,1002.28
2018-03-15T19:13:38.797Z,1002.34
2018-03-15T19:14:40.190Z,1002.35
2018-03-15T19:15:41.590Z,1002.28
2018-03-15T19:16:42.982Z,1002.34
2018-03-15T19:17:44.383Z,1002.43
2018-03-15T19:18:45.798Z,1002.42
2018-03-15T19:19:47.336Z,1002.32
2018-03-15T19:20:49.475Z,1002.31
2018-03-15T19:21:50.868Z,1002.34
2018-03-15T19:22:52.292Z,1002.32
2018-03-15T19:23:53.682Z,1002.37
2018-03-15T19:24:55.088Z,1002.41
2018-03-15T19:25:56.483Z,1002.44
2018-03-15T19:26:57.835Z,1002.46
2018-03-15T19:28:00.041Z,1002.48
2018-03-15T19:29:00.562Z,1002.48
2018-03-15T19:30:01.938Z,1002.48
2018-03-15T19:31:04.758Z,1002.53
2018-03-15T19:32:06.103Z,1002.46
2018-03-15T19:33:07.548Z,1002.52
2018-03-15T19:34:08.953Z,1002.55
2018-03-15T19:35:10.365Z,1002.57
2018-03-15T19:36:11.762Z,1002.52
2018-03-15T19:37:13.165Z,1002.40
2018-03-15T19:38:14.625Z,1002.56
2018-03-15T19:39:15.966Z,1002.45
2018-03-15T19:40:17.445Z,1002.47
2018-03-15T19:41:18.827Z,1002.59
2018-03-15T19:42:21.110Z,1002.59
2018-03-15T19:43:22.567Z,1002.51
2018-03-15T19:44:24.037Z,1002.60
2018-03-15T19:45:26.097Z,1002.53
2018-03-15T19:46:27.495Z,1002.60
2018-03-15T19:47:28.901Z,1002.57
2018-03-15T19:48:30.462Z,1002.58
2018-03-15T19:49:31.931Z,1002.58
2018-03-15T19:50:33.439Z,1002.65
2018-03-15T19:51:34.829Z,1002.57
2018-03-15T19:52:36.222Z,1002.64
2018-03-15T19:53:37.732Z,1002.52
2018-03-15T19:54:39.080Z,1002.62
2018-03-15T19:55:40.476Z,1002.60
2018-03-15T19:56:41.926Z,1002.60
2018-03-15T19:57:43.294Z,1002.63
2018-03-15T19:58:44.767Z,1002.54
2018-03-15T19:59:46.974Z,1002.51
2018-03-15T20:00:49.199Z,1002.56
2018-03-15T20:01:50.559Z,1002.65
2018-03-15T20:02:51.906Z,1002.42
2018-03-15T20:03:53.305Z,1002.54
2018-03-15T20:04:54.692Z,1002.51
2018-03-15T20:05:56.091Z,1002.54
2018-03-15T20:06:57.479Z,1002.49
2018-03-15T20:07:58.886Z,1002.65
2018-03-15T20:09:00.283Z,1002.53
2018-03-15T20:10:01.624Z,1002.54
2018-03-15T20:11:03.036Z,1002.40
2018-03-15T20:12:04.401Z,1002.44
2018-03-15T20:13:05.746Z,1002.49
2018-03-15T20:14:07.138Z,1002.39
2018-03-15T20:15:08.488Z,1002.50
2018-03-15T20:16:09.867Z,1002.43
2018-03-15T20:17:11.248Z,1002.44
2018-03-15T20:18:12.630Z,1002.45
2018-03-15T20:19:14.016Z,1002.51
2018-03-15T20:20:15.455Z,1002.50
2018-03-15T20:21:17.627Z,1002.41
2018-03-15T20:22:19.714Z,1002.42
2018-03-15T20:23:21.066Z,1002.47
2018-03-15T20:24:22.459Z,1002.41
2018-03-15T20:25:24.626Z,1002.44
2018-03-15T20:26:25.981Z,1002.37
2018-03-15T20:27:27.371Z,1002.45
2018-03-15T20:28:28.750Z,1002.51
2018-03-15T20:29:30.167Z,1002.40
2018-03-15T20:30:31.600Z,1002.42
2018-03-15T20:31:32.983Z,1002.44
2018-03-15T20:32:34.380Z,1002.38
2018-03-15T20:33:35.742Z,1002.47
2018-03-15T20:34:37.129Z,1002.47
2018-03-15T20:35:38.507Z,1002.46
2018-03-15T20:36:39.911Z,1002.46
2018-03-15T20:37:41.858Z,1002.44
2018-03-15T20:38:43.259Z,1002.50
2018-03-15T20:39:44.637Z,1002.45
2018-03-15T20:40:45.988Z,1002.46
2018-03-15T20:41:47.400Z,1002.40
2018-03-15T20:42:48.788Z,1002.42
2018-03-15T20:43:50.950Z,1002.50
2018-03-15T20:44:52.329Z,1002.43
2018-03-15T20:45:53.690Z,1002.39
2018-03-15T20:46:55.113Z,1002.40
2018-03-15T20:47:56.488Z,1002.47
2018-03-15T20:48:57.876Z,1002.43
2018-03-15T20:49:59.226Z,1002.53
2018-03-15T20:51:00.657Z,1002.40
2018-03-15T20:52:02.039Z,1002.45
2018-03-15T20:53:03.449Z,1002.38
2018-03-15T20:54:04.770Z,1002.46
2018-03-15T20:55:06.137Z,1002.49
2018-03-15T20:56:07.571Z,1002.46
2018-03-15T20:57:08.943Z,1002.47
2018-03-15T20:58:10.334Z,1002.39
2018-03-15T20:59:11.733Z,1002.37
2018-03-15T21:00:13.087Z,1002.46
2018-03-15T21:01:14.476Z,1002.38
2018-03-15T21:02:15.853Z,1002.33
2018-03-15T21:03:17.241Z,1002.38
2018-03-15T21:04:18.618Z,1002.30
2018-03-15T21:05:20.012Z,1002.28
2018-03-15T21:06:21.380Z,1002.29
2018-03-15T21:07:22.744Z,1002.32
2018-03-15T21:08:24.162Z,1002.26
2018-03-15T21:09:25.537Z,1002.35
2018-03-15T21:10:26.956Z,1002.34
2018-03-15T21:11:28.362Z,1002.30
2018-03-15T21:12:29.770Z,1002.19
2018-03-15T21:13:31.161Z,1002.23
2018-03-15T21:14:32.539Z,1002.28
2018-03-15T21:15:33.917Z,1002.23
2018-03-15T21:16:35.286Z,1002.30
2018-03-15T21:17:36.710Z,1002.27
2018-03-15T21:18:38.051Z,1002.22
2018-03-15T21:19:39.423Z,1002.25
2018-03-15T21:20:40.798Z,1002.27
2018-03-15T21:21:42.149Z,1002.24
2018-03-15T21:22:43.544Z,1002.26
2018-03-15T21:23:44.928Z,1002.19
2018-03-15T21:24:46.302Z,1002.23
2018-03-15T21:25:47.692Z,1002.28
2018-03-15T21:26:50.121Z,1002.18
2018-03-15T21:27:51.455Z,1002.23
2018-03-15T21:28:52.849Z,1002.20
2018-03-15T21:29:54.246Z,1002.24
2018-03-15T21:30:55.583Z,1002.29
2018-03-15T21:31:56.966Z,1002.24
2018-03-15T21:32:58.329Z,1002.24
2018-03-15T21:33:59.712Z,1002.16
2018-03-15T21:35:01.109Z,1002.22
2018-03-15T21:36:02.492Z,1002.18
2018-03-15T21:37:03.870Z,1002.22
2018-03-15T21:38:05.248Z,1002.27
2018-03-15T21:39:06.611Z,1002.29
2018-03-15T21:40:08.107Z,1002.22
2018-03-15T21:41:09.446Z,1002.17
2018-03-15T21:42:10.816Z,1002.21
2018-03-15T21:43:12.225Z,1002.21
2018-03-15T21:44:13.585Z,1002.26
2018-03-15T21:45:14.953Z,1002.27
2018-03-15T21:46:16.332Z,1002.33
2018-03-15T21:47:17.704Z,1002.40
2018-03-15T21:48:19.077Z,1002.27
2018-03-15T21:49:20.454Z,1002.34
2018-03-15T21:50:21.831Z,1002.32
2018-03-15T21:51:23.207Z,1002.33
2018-03-15T21:52:24.608Z,1002.31
2018-03-15T21:53:25.975Z,1002.26
2018-03-15T21:54:27.352Z,1002.26
2018-03-15T21:55:28.732Z,1002.15
2018-03-15T21:56:30.133Z,1002.30
2018-03-15T21:57:31.432Z,1002.23
2018-03-15T21:58:33.584Z,1002.34
2018-03-15T21:59:34.966Z,1002.28
2018-03-15T22:00:36.340Z,1002.31
2018-03-15T22:01:37.727Z,1002.21
2018-03-15T22:02:39.106Z,1002.23
2018-03-15T22:03:40.488Z,1002.26
2018-03-15T22:04:41.859Z,1002.18
2018-03-15T22:05:43.272Z,1002.28
2018-03-15T22:06:44.608Z,1002.31
2018-03-15T22:07:45.980Z,1002.23
2018-03-15T22:08:47.369Z,1002.26
2018-03-15T22:09:48.737Z,1002.36
2018-03-15T22:10:50.109Z,1002.24
2018-03-15T22:11:51.495Z,1002.38
2018-03-15T22:12:52.878Z,1002.21
2018-03-15T22:13:54.242Z,1002.22
2018-03-15T22:14:55.620Z,1002.22
2018-03-15T22:15:56.985Z,1002.26
2018-03-15T22:16:58.366Z,1002.25
2018-03-15T22:17:59.754Z,1002.23
2018-03-15T22:19:01.144Z,1002.20
2018-03-15T22:20:03.404Z,1002.21
2018-03-15T22:21:04.773Z,1002.18
2018-03-15T22:22:06.158Z,1002.23
2018-03-15T22:23:07.538Z,1002.26
2018-03-15T22:24:08.938Z,1002.28
2018-03-15T22:25:10.327Z,1002.29
2018-03-15T22:26:11.694Z,1002.33
2018-03-15T22:27:13.071Z,1002.31
2018-03-15T22:28:14.444Z,1002.31
2018-03-15T22:29:15.825Z,1002.34
2018-03-15T22:30:17.221Z,1002.43
2018-03-15T22:31:18.598Z,1002.30
2018-03-15T22:32:19.935Z,1002.48
2018-03-15T22:33:21.300Z,1002.35
2018-03-15T22:34:23.648Z,1002.40
2018-03-15T22:35:25.010Z,1002.44
2018-03-15T22:36:26.387Z,1002.37
2018-03-15T22:37:27.758Z,1002.38
2018-03-15T22:38:29.131Z,1002.48
2018-03-15T22:39:30.514Z,1002.35
2018-03-15T22:40:31.882Z,1002.34
2018-03-15T22:41:33.250Z,1002.39
2018-03-15T22:42:34.627Z,1002.37
2018-03-15T22:43:36.005Z,1002.30
2018-03-15T22:44:37.382Z,1002.34
2018-03-15T22:45:38.760Z,1002.31
2018-03-15T22:46:40.149Z,1002.34
2018-03-15T22:47:41.527Z,1002.43
2018-03-15T22:48:42.901Z,1002.29
2018-03-15T22:49:44.281Z,1002.28
2018-03-15T22:50:45.674Z,1002.24
2018-03-15T22:51:47.047Z,1002.22
2018-03-15T22:52:48.430Z,1002.39
2018-03-15T22:53:49.805Z,1002.33
2018-03-15T22:54:51.173Z,1002.21
2018-03-15T22:55:52.545Z,1002.33
2018-03-15T22:56:53.923Z,1002.32
2018-03-15T22:57:55.287Z,1002.35
2018-03-15T22:58:56.661Z,1002.41
2018-03-15T22:59:58.035Z,1002.27
2018-03-15T23:00:59.478Z,1002.30
2018-03-15T23:02:00.793Z,1002.25
2018-03-15T23:03:02.177Z,1002.46
2018-03-15T23:04:03.541Z,1002.39
2018-03-15T23:05:04.920Z,1002.31
2018-03-15T23:06:06.307Z,1002.38
2018-03-15T23:07:07.690Z,1002.36
2018-03-15T23:08:09.072Z,1002.23
2018-03-15T23:09:10.448Z,1002.22
2018-03-15T23:10:11.826Z,1002.23
2018-03-15T23:11:13.208Z,1002.34
2018-03-15T23:12:14.596Z,1002.22
2018-03-15T23:13:15.983Z,1002.21
2018-03-15T23:14:17.326Z,1002.11
2018-03-15T23:15:18.708Z,1002.24
2018-03-15T23:16:20.078Z,1002.31
2018-03-15T23:17:21.456Z,1002.28
2018-03-15T23:18:22.829Z,1002.09
2018-03-15T23:19:24.195Z,1002.13
2018-03-15T23:20:25.569Z,1002.19
2018-03-15T23:21:26.947Z,1002.16
2018-03-15T23:22:28.320Z,1002.25
2018-03-15T23:23:29.696Z,1002.29
2018-03-15T23:24:31.066Z,1002.20
2018-03-15T23:25:32.494Z,1002.12
2018-03-15T23:26:33.827Z,1002.28
2018-03-15T23:27:35.207Z,1002.17
2018-03-15T23:28:36.580Z,1002.18
2018-03-15T23:29:37.944Z,1002.17
2018-03-15T23:30:39.322Z,1002.17
2018-03-15T23:31:40.708Z,1002.15
2018-03-15T23:32:42.075Z,1002.11
2018-03-15T23:33:43.448Z,1002.18
2018-03-15T23:34:44.822Z,1002.15
2018-03-15T23:35:46.198Z,1002.16
2018-03-15T23:36:47.577Z,1002.25
2018-03-15T23:37:48.950Z,1002.10
2018-03-15T23:38:50.338Z,1002.13
2018-03-15T23:39:51.697Z,1002.29
2018-03-15T23:40:53.077Z,1002.17
2018-03-15T23:41:54.450Z,1002.20
2018-03-15T23:42:55.821Z,1002.17
2018-03-15T23:43:57.229Z,1002.04
2018-03-15T23:44:58.564Z,1002.22
2018-03-15T23:45:59.947Z,1002.20
2018-03-15T23:47:01.320Z,1002.05
2018-03-15T23:48:03.268Z,1002.17
2018-03-15T23:49:04.643Z,1002.19
2018-03-15T23:50:06.026Z,1002.27
2018-03-15T23:51:07.412Z,1002.27
2018-03-15T23:52:08.774Z,1002.28
2018-03-15T23:53:10.150Z,1002.20
2018-03-15T23:54:11.528Z,1002.21
2018-03-15T23:55:12.904Z,1002.25
2018-03-15T23:56:14.279Z,1002.22
2018-03-15T23:57:15.658Z,1002.24
2018-03-15T23:58:17.028Z,1002.29
2018-03-15T23:59:18.397Z,1002.30
